createdAt,value
2022-10-07T00:03:41.943Z,20.33
2022-10-07T00:08:46.989Z,19.77
2022-10-07T00:13:53.125Z,9.38
2022-10-07T00:18:57.982Z,13.25
2022-10-07T00:24:00.620Z,12.23
2022-10-07T00:29:03.929Z,12.85
2022-10-07T00:34:06.266Z,13.30
2022-10-07T00:39:11.966Z,13.90
2022-10-07T00:44:32.399Z,19.73
2022-10-07T00:49:44.845Z,12.20
2022-10-07T00:54:51.595Z,10.02
2022-10-07T00:59:55.955Z,13.70
2022-10-07T01:05:01.970Z,12.75
2022-10-07T01:10:05.725Z,14.88
2022-10-07T01:15:19.686Z,15.27
2022-10-07T01:20:53.631Z,8.75
2022-10-07T01:26:23.579Z,17.20
2022-10-07T01:31:33.599Z,12.67
2022-10-07T01:36:37.934Z,9.95
2022-10-07T01:41:41.826Z,14.70
2022-10-07T01:46:44.421Z,25.52
2022-10-07T01:51:52.411Z,18.85
2022-10-07T01:57:15.129Z,20.88
2022-10-07T02:02:52.255Z,15.52
2022-10-07T02:08:15.408Z,19.85
2022-10-07T02:13:33.999Z,13.70
2022-10-07T02:18:38.406Z,20.13
2022-10-07T02:23:44.499Z,16.90
2022-10-07T02:28:51.620Z,20.48
2022-10-07T02:33:57.546Z,13.85
2022-10-07T02:39:01.783Z,17.40
2022-10-07T02:44:15.103Z,17.15
2022-10-07T02:49:21.293Z,16.80
2022-10-07T02:54:29.614Z,17.20
2022-10-07T02:59:34.070Z,16.73
2022-10-07T03:04:36.300Z,17.48
2022-10-07T03:09:38.803Z,17.40
2022-10-07T03:14:41.411Z,18.27
2022-10-07T03:19:43.894Z,18.23
2022-10-07T03:24:46.068Z,19.35
2022-10-07T03:29:49.407Z,20.00
2022-10-07T03:34:53.172Z,20.35
2022-10-07T03:39:55.420Z,23.00
2022-10-07T03:44:57.824Z,17.65
2022-10-07T03:50:00.026Z,16.10
2022-10-07T03:55:02.496Z,19.15
2022-10-07T04:00:04.948Z,14.00
2022-10-07T04:05:07.503Z,12.88
2022-10-07T04:10:11.436Z,8.25
2022-10-07T04:15:14.261Z,8.00
2022-10-07T04:20:17.827Z,15.57
2022-10-07T04:25:35.570Z,20.73
2022-10-07T04:30:43.989Z,9.85
2022-10-07T04:35:46.380Z,10.95
2022-10-07T04:40:53.427Z,17.48
2022-10-07T04:46:07.974Z,24.88
2022-10-07T04:51:11.004Z,18.45
2022-10-07T04:56:13.375Z,20.40
2022-10-07T05:01:15.663Z,19.50
2022-10-07T05:06:18.933Z,23.48
2022-10-07T05:11:21.347Z,23.10
2022-10-07T05:16:23.729Z,26.05
2022-10-07T05:21:26.006Z,35.72
2022-10-07T05:26:28.395Z,35.90
2022-10-07T05:31:30.823Z,29.33
2022-10-07T05:36:33.059Z,40.72
2022-10-07T05:41:44.999Z,43.47
2022-10-07T05:46:48.029Z,24.42
2022-10-07T05:51:51.882Z,31.10
2022-10-07T05:56:54.383Z,22.30
2022-10-07T06:02:00.743Z,16.10
2022-10-07T06:07:04.511Z,23.95
2022-10-07T06:12:25.236Z,24.92
2022-10-07T06:17:27.568Z,11.07
2022-10-07T06:22:29.817Z,14.02
2022-10-07T06:27:32.025Z,14.52
2022-10-07T06:32:34.238Z,16.92
2022-10-07T06:37:36.496Z,10.10
2022-10-07T06:42:38.865Z,14.00
2022-10-07T06:47:41.291Z,24.70
2022-10-07T06:52:44.256Z,5.05
2022-10-07T06:57:46.700Z,13.20
2022-10-07T07:02:49.113Z,8.45
2022-10-07T07:07:51.466Z,8.45
2022-10-07T07:12:54.650Z,14.50
2022-10-07T07:17:56.947Z,8.00
2022-10-07T07:22:59.316Z,22.20
2022-10-07T07:28:02.438Z,7.75
2022-10-07T07:33:05.744Z,5.50
2022-10-07T07:38:09.109Z,9.20
2022-10-07T07:43:11.354Z,4.38
2022-10-07T07:48:13.998Z,8.05
2022-10-07T07:53:16.326Z,2.83
2022-10-07T07:58:19.156Z,10.77
2022-10-07T08:03:21.549Z,5.75
2022-10-07T08:08:23.956Z,4.90
2022-10-07T08:13:26.280Z,3.95
2022-10-07T08:18:28.567Z,3.83
2022-10-07T08:23:31.323Z,8.20
2022-10-07T08:28:35.528Z,6.25
2022-10-07T08:33:43.336Z,2.92
2022-10-07T08:38:50.035Z,4.95
2022-10-07T08:43:52.819Z,10.05
2022-10-07T08:49:05.123Z,20.63
2022-10-07T08:54:13.055Z,4.18
2022-10-07T08:59:27.761Z,3.88
2022-10-07T09:04:44.867Z,3.90
2022-10-07T09:09:54.330Z,2.25
2022-10-07T09:14:59.657Z,2.55
2022-10-07T09:20:19.989Z,4.95
2022-10-07T09:25:27.554Z,7.28
2022-10-07T09:30:29.958Z,5.18
2022-10-07T09:35:32.299Z,7.32
2022-10-07T09:40:59.078Z,5.80
2022-10-07T09:46:02.190Z,15.23
2022-10-07T09:51:27.362Z,4.78
2022-10-07T09:56:42.042Z,6.18
2022-10-07T10:01:56.119Z,7.13
2022-10-07T10:07:06.651Z,6.55
2022-10-07T10:12:15.401Z,5.18
2022-10-07T10:17:28.791Z,3.50
2022-10-07T10:22:31.246Z,7.22
2022-10-07T10:28:00.141Z,3.17
2022-10-07T10:33:15.212Z,6.07
2022-10-07T10:38:26.007Z,2.97
2022-10-07T10:43:35.630Z,5.55
2022-10-07T10:48:44.775Z,8.18
2022-10-07T10:54:15.085Z,3.58
2022-10-07T10:59:41.409Z,6.78
2022-10-07T11:04:50.538Z,4.50
2022-10-07T11:10:02.030Z,5.43
2022-10-07T11:15:21.949Z,3.78
2022-10-07T11:20:41.107Z,15.90
2022-10-07T11:26:03.362Z,4.47
2022-10-07T11:31:24.118Z,3.60
2022-10-07T11:36:44.335Z,2.88
2022-10-07T11:41:58.607Z,9.48
2022-10-07T11:47:04.594Z,7.55
2022-10-07T11:52:11.455Z,3.25
2022-10-07T11:57:24.595Z,5.90
2022-10-07T12:02:29.932Z,2.10
2022-10-07T12:07:41.208Z,3.05
2022-10-07T12:12:45.003Z,5.07
2022-10-07T12:18:11.002Z,10.32
2022-10-07T12:23:28.790Z,4.13
2022-10-07T12:28:40.539Z,4.75
2022-10-07T12:33:45.816Z,2.45
2022-10-07T12:38:57.216Z,15.30
2022-10-07T12:44:11.206Z,3.47
2022-10-07T12:49:21.108Z,3.25
2022-10-07T12:54:44.244Z,1.42
2022-10-07T13:00:14.255Z,2.70
2022-10-07T13:05:53.770Z,1.33
2022-10-07T13:16:38.981Z,0.77
2022-10-07T13:22:05.717Z,0.60
2022-10-07T13:27:10.995Z,1.98
2022-10-07T13:32:22.512Z,2.65
2022-10-07T13:37:34.312Z,5.13
2022-10-07T13:42:36.764Z,5.03
2022-10-07T13:47:40.102Z,1.67
2022-10-07T13:52:47.403Z,1.23
2022-10-07T13:57:49.984Z,0.57
2022-10-07T14:02:52.842Z,1.10
2022-10-07T14:08:16.754Z,2.15
2022-10-07T14:13:19.289Z,2.22
2022-10-07T14:18:21.699Z,3.30
2022-10-07T14:23:31.610Z,2.00
2022-10-07T14:28:36.061Z,3.00
2022-10-07T14:34:02.022Z,2.58
2022-10-07T14:39:24.556Z,3.42
2022-10-07T14:44:27.055Z,4.78
2022-10-07T14:49:30.377Z,2.03
2022-10-07T14:54:34.666Z,6.75
2022-10-07T14:59:37.683Z,3.90
2022-10-07T15:04:40.612Z,3.08
2022-10-07T15:09:44.542Z,4.25
2022-10-07T15:14:46.906Z,6.65
2022-10-07T15:19:51.689Z,2.03
2022-10-07T15:24:54.205Z,7.97
2022-10-07T15:29:56.508Z,3.50
2022-10-07T15:34:59.354Z,5.20
2022-10-07T15:40:01.625Z,3.90
2022-10-07T15:45:04.086Z,6.75
2022-10-07T15:50:07.876Z,5.90
2022-10-07T15:55:10.262Z,6.57
2022-10-07T16:00:13.099Z,3.17
2022-10-07T16:05:15.397Z,7.63
2022-10-07T16:10:17.929Z,4.97
2022-10-07T16:15:20.592Z,2.72
2022-10-07T16:20:22.764Z,2.72
2022-10-07T16:25:25.002Z,4.18
2022-10-07T16:30:42.215Z,5.88
2022-10-07T16:35:44.853Z,5.28
2022-10-07T16:40:54.848Z,5.63
2022-10-07T16:46:02.917Z,23.45
2022-10-07T16:51:08.584Z,4.33
2022-10-07T16:56:11.279Z,8.70
2022-10-07T17:01:16.769Z,4.00
2022-10-07T17:06:21.727Z,3.65
2022-10-07T17:11:31.117Z,11.68
2022-10-07T17:16:38.185Z,5.72
2022-10-07T17:21:42.966Z,5.03
2022-10-07T17:26:46.601Z,11.48
2022-10-07T17:31:51.038Z,6.43
2022-10-07T17:36:54.468Z,5.18
2022-10-07T17:41:57.924Z,6.95
2022-10-07T17:47:04.008Z,14.90
2022-10-07T17:52:06.229Z,13.52
2022-10-07T17:57:08.640Z,14.43
2022-10-07T18:02:11.363Z,10.20
2022-10-07T18:07:13.830Z,22.42
2022-10-07T18:12:34.887Z,8.63
2022-10-07T18:17:37.379Z,6.15
2022-10-07T18:22:39.623Z,13.77
2022-10-07T18:27:41.844Z,7.38
2022-10-07T18:32:44.083Z,10.77
2022-10-07T18:37:46.693Z,18.42
2022-10-07T18:42:49.125Z,14.48
2022-10-07T18:47:51.629Z,9.95
2022-10-07T18:52:54.707Z,18.35
2022-10-07T18:57:57.109Z,16.02
2022-10-07T19:02:59.468Z,19.55
2022-10-07T19:08:01.907Z,17.05
2022-10-07T19:13:22.402Z,15.30
2022-10-07T19:18:25.981Z,36.40
2022-10-07T19:23:29.558Z,14.02
2022-10-07T19:28:32.282Z,26.88
2022-10-07T19:33:35.013Z,31.48
2022-10-07T19:38:45.126Z,12.50
2022-10-07T19:43:48.758Z,16.75
2022-10-07T19:48:51.544Z,16.75
2022-10-07T19:53:55.191Z,16.33
2022-10-07T19:58:59.656Z,19.77
2022-10-07T20:04:04.829Z,18.52
2022-10-07T20:09:09.422Z,17.15
2022-10-07T20:14:11.934Z,32.97
2022-10-07T20:19:18.966Z,21.23
2022-10-07T20:24:21.494Z,18.40
2022-10-07T20:29:25.510Z,18.02
2022-10-07T20:34:28.231Z,17.17
2022-10-07T20:39:49.820Z,19.92
2022-10-07T20:44:53.651Z,19.10
2022-10-07T20:49:58.200Z,28.73
2022-10-07T20:55:00.653Z,20.85
2022-10-07T21:00:03.110Z,12.43
2022-10-07T21:05:06.994Z,14.02
2022-10-07T21:10:09.260Z,16.50
2022-10-07T21:15:11.870Z,15.82
2022-10-07T21:20:14.280Z,13.63
2022-10-07T21:25:16.688Z,15.52
2022-10-07T21:30:19.243Z,9.02
2022-10-07T21:35:21.434Z,21.48
2022-10-07T21:40:23.923Z,11.55
2022-10-07T21:45:26.091Z,6.35
2022-10-07T21:50:28.326Z,7.32
2022-10-07T21:55:30.843Z,7.53
2022-10-07T22:00:36.556Z,5.13
2022-10-07T22:05:40.302Z,9.05
2022-10-07T22:10:42.732Z,10.30
2022-10-07T22:15:45.646Z,15.50
2022-10-07T22:20:47.935Z,12.63
2022-10-07T22:25:51.812Z,6.53
2022-10-07T22:30:54.062Z,6.18
2022-10-07T22:35:56.324Z,8.85
2022-10-07T22:41:06.699Z,9.38
2022-10-07T22:46:11.140Z,14.57
2022-10-07T22:51:15.387Z,6.43
2022-10-07T22:56:18.997Z,4.80
2022-10-07T23:01:22.440Z,8.93
2022-10-07T23:06:25.123Z,5.70
2022-10-07T23:11:28.748Z,7.60
2022-10-07T23:16:34.431Z,11.25
2022-10-07T23:21:37.588Z,3.80
2022-10-07T23:26:40.075Z,9.35
2022-10-07T23:31:42.509Z,9.65
2022-10-07T23:36:45.021Z,6.18
2022-10-07T23:41:47.427Z,3.58
2022-10-07T23:46:51.013Z,4.68
2022-10-07T23:51:53.756Z,5.90
2022-10-07T23:56:56.110Z,7.30
